Time;durP1;ratioP1;P1;durP2;ratioP2;P2;SDS_P1;SDS_P2;PMS_P1;PMS_P2;Temp;Humidity;BMP_temperature;BMP_pressure;BME280_temperature;BME280_humidity;BME280_pressure;Samples;Min_cycle;Max_cycle;Signal;HPM_P1;HPM_P2
2021/12/27 00:00:57;;;;;;;101.07;31.53;;;;;;;-14.07;66.25;98917.22;2280220;78;21298;-79
2021/12/27 00:03:58;;;;;;;97.30;32.97;;;;;;;-14.04;66.62;98922.94;2280231;78;20965;-79
2021/12/27 00:06:58;;;;;;;86.33;30.27;;;;;;;-13.99;66.74;98918.04;2280897;78;20950;-79
2021/12/27 00:10:00;;;;;;;79.60;27.20;;;;;;;-13.95;67.09;98925.16;2281028;78;20977;-79
2021/12/27 00:13:02;;;;;;;74.13;26.27;;;;;;;-13.94;67.65;98927.84;2280959;78;21025;-79
2021/12/27 00:16:03;;;;;;;91.27;27.60;;;;;;;-13.92;67.57;98928.00;2280936;78;21358;-79
2021/12/27 00:19:03;;;;;;;92.80;30.77;;;;;;;-13.91;67.48;98915.98;2281022;78;21020;-79
2021/12/27 00:22:03;;;;;;;100.93;33.60;;;;;;;-13.90;67.02;98919.91;2280419;78;20933;-79
2021/12/27 00:25:04;;;;;;;85.77;31.00;;;;;;;-13.91;67.23;98911.86;2280421;78;21301;-80
2021/12/27 00:28:04;;;;;;;96.23;30.40;;;;;;;-13.89;67.78;98906.63;2280834;78;21333;-79
2021/12/27 00:31:05;;;;;;;101.57;33.73;;;;;;;-13.82;67.81;98912.33;2280974;78;21334;-80
2021/12/27 00:34:05;;;;;;;109.83;34.93;;;;;;;-13.78;68.20;98910.67;2281306;78;21305;-79
2021/12/27 00:37:06;;;;;;;79.90;28.63;;;;;;;-13.73;67.69;98914.56;2280920;78;20934;-79
2021/12/27 00:40:06;;;;;;;93.57;32.30;;;;;;;-13.76;67.32;98920.14;2281051;78;20929;-80
2021/12/27 00:43:07;;;;;;;90.50;29.80;;;;;;;-13.76;67.65;98917.64;2280246;78;20974;-79
2021/12/27 00:46:07;;;;;;;104.40;35.23;;;;;;;-13.74;67.56;98919.94;2280766;78;20974;-79
2021/12/27 00:49:08;;;;;;;89.67;31.13;;;;;;;-13.67;67.80;98913.58;2280347;78;20962;-79
2021/12/27 00:52:08;;;;;;;92.77;31.73;;;;;;;-13.63;67.42;98913.54;2280948;78;20977;-79
2021/12/27 00:55:09;;;;;;;90.63;28.50;;;;;;;-13.63;67.57;98913.17;2280928;78;21306;-79
2021/12/27 00:58:10;;;;;;;109.60;38.27;;;;;;;-13.61;67.84;98912.08;2280845;78;21381;-80
2021/12/27 01:01:11;;;;;;;104.43;36.07;;;;;;;-13.58;67.85;98922.08;2280903;78;20935;-80
2021/12/27 01:04:11;;;;;;;105.53;34.10;;;;;;;-13.59;67.30;98916.53;2280615;78;20962;-79
2021/12/27 01:07:12;;;;;;;110.10;36.03;;;;;;;-13.58;67.65;98921.19;2280758;78;20934;-80
2021/12/27 01:13:22;;;;;;;107.90;36.10;;;;;;;-13.52;67.29;98920.21;2259815;78;20933;-80
2021/12/27 01:16:20;;;;;;;106.07;36.03;;;;;;;-13.53;67.07;98917.54;2279626;78;20933;-80
2021/12/27 01:19:20;;;;;;;113.07;37.30;;;;;;;-13.56;67.42;98913.45;2281474;78;21341;-80
2021/12/27 01:22:21;;;;;;;110.27;35.20;;;;;;;-13.55;67.24;98916.13;2281291;78;21012;-79
2021/12/27 01:25:21;;;;;;;109.93;36.90;;;;;;;-13.55;66.98;98913.61;2281255;78;20930;-79
2021/12/27 01:28:22;;;;;;;124.10;48.70;;;;;;;-13.54;67.23;98919.16;2280994;78;20934;-78
2021/12/27 01:31:22;;;;;;;119.77;41.57;;;;;;;-13.48;67.31;98917.66;2281604;78;20930;-78
2021/12/27 01:34:25;;;;;;;106.50;36.77;;;;;;;-13.47;66.79;98911.02;2281312;78;20915;-79
2021/12/27 01:37:25;;;;;;;108.20;38.63;;;;;;;-13.48;66.77;98906.36;2280921;78;20977;-78
2021/12/27 01:40:26;;;;;;;269.57;119.17;;;;;;;-13.52;66.44;98900.12;2281036;78;20931;-79
2021/12/27 01:43:26;;;;;;;141.93;47.23;;;;;;;-13.55;66.79;98894.78;2281081;78;20918;-79
2021/12/27 01:46:29;;;;;;;127.70;44.23;;;;;;;-13.58;66.58;98896.97;2280911;78;21346;-79
2021/12/27 01:49:29;;;;;;;125.83;43.63;;;;;;;-13.63;66.45;98895.97;2280316;78;21014;-79
2021/12/27 01:52:30;;;;;;;118.50;40.17;;;;;;;-13.66;66.70;98904.07;2280471;78;21001;-79
2021/12/27 01:55:30;;;;;;;131.27;45.73;;;;;;;-13.66;66.80;98895.65;2280176;78;20918;-79
2021/12/27 01:58:31;;;;;;;146.17;46.83;;;;;;;-13.63;66.19;98899.37;2280714;78;20989;-80
2021/12/27 02:01:32;;;;;;;144.70;47.07;;;;;;;-13.64;66.44;98898.84;2280638;78;21361;-79
2021/12/27 02:04:33;;;;;;;132.03;43.20;;;;;;;-13.66;66.27;98904.07;2280352;78;21092;-80
2021/12/27 02:07:33;;;;;;;126.30;45.57;;;;;;;-13.73;66.25;98907.92;2279954;78;20973;-80
2021/12/27 02:10:34;;;;;;;132.40;48.50;;;;;;;-13.81;66.11;98907.48;2280102;78;20938;-79
2021/12/27 02:13:36;;;;;;;138.07;45.57;;;;;;;-13.84;65.92;98897.11;2280005;78;20977;-79
2021/12/27 02:16:36;;;;;;;135.30;44.07;;;;;;;-13.82;66.03;98901.94;2279906;78;21266;-79
2021/12/27 02:19:37;;;;;;;126.73;41.70;;;;;;;-13.86;65.78;98896.95;2279912;78;20985;-80
2021/12/27 02:22:40;;;;;;;128.37;45.73;;;;;;;-13.88;66.92;98897.48;2280165;78;21381;-80
2021/12/27 02:25:40;;;;;;;110.57;40.67;;;;;;;-13.85;68.18;98891.20;2280019;78;20922;-79
2021/12/27 02:28:41;;;;;;;112.43;39.03;;;;;;;-13.61;70.68;98894.14;2280467;78;20969;-79
2021/12/27 02:31:42;;;;;;;117.67;37.80;;;;;;;-13.22;72.90;98888.60;2280480;78;20958;-78
2021/12/27 02:34:42;;;;;;;95.00;35.03;;;;;;;-12.97;72.03;98892.38;2280752;78;21299;-79
2021/12/27 02:37:43;;;;;;;120.17;39.87;;;;;;;-12.81;72.40;98889.42;2280717;78;21357;-79
2021/12/27 02:40:43;;;;;;;106.47;35.63;;;;;;;-12.78;70.86;98885.08;2281029;78;21346;-79
2021/12/27 02:43:43;;;;;;;126.37;43.70;;;;;;;-12.70;71.58;98880.45;2280405;78;21025;-79
2021/12/27 02:46:44;;;;;;;123.17;44.57;;;;;;;-12.73;69.44;98881.03;2280503;78;20996;-79
2021/12/27 02:49:44;;;;;;;104.37;35.87;;;;;;;-12.82;69.15;98884.25;2280214;78;20950;-79
2021/12/27 02:52:45;;;;;;;123.10;44.00;;;;;;;-12.83;70.28;98874.56;2280848;78;20984;-78
2021/12/27 02:55:45;;;;;;;101.13;35.37;;;;;;;-12.86;69.12;98874.25;2280816;78;20920;-79
2021/12/27 02:58:46;;;;;;;111.97;39.20;;;;;;;-12.91;68.49;98877.55;2281310;78;21354;-79
2021/12/27 03:01:46;;;;;;;137.83;46.20;;;;;;;-12.93;68.64;98879.02;2290741;78;21317;-78
2021/12/27 03:04:46;;;;;;;124.30;43.83;;;;;;;-13.00;68.02;98879.49;2290640;78;21320;-78
2021/12/27 03:07:47;;;;;;;115.10;39.57;;;;;;;-13.06;67.76;98882.60;2290818;78;20916;-79
2021/12/27 03:10:48;;;;;;;115.07;39.57;;;;;;;-13.09;68.79;98880.66;2290785;78;21313;-79
2021/12/27 03:13:50;;;;;;;90.70;33.90;;;;;;;-13.09;68.79;98880.66;2290575;78;20928;-79
2021/12/27 03:16:50;;;;;;;111.07;36.83;;;;;;;-13.04;68.23;98880.77;2290236;77;20993;-80
2021/12/27 03:19:51;;;;;;;111.37;37.40;;;;;;;-13.07;68.18;98875.43;2290758;78;20959;-79
2021/12/27 03:22:51;;;;;;;109.27;35.00;;;;;;;-13.11;68.19;98868.31;2290741;78;20990;-79
2021/12/27 03:25:53;;;;;;;99.27;35.33;;;;;;;-13.10;68.34;98868.84;2290541;78;20960;-79
2021/12/27 03:28:53;;;;;;;111.83;36.83;;;;;;;-13.10;68.48;98865.06;2290987;78;21296;-79
2021/12/27 03:31:55;;;;;;;104.50;37.57;;;;;;;-13.04;68.74;98851.88;2290980;78;21011;-79
2021/12/27 03:34:57;;;;;;;103.53;36.90;;;;;;;-13.00;68.88;98851.85;2290979;78;21415;-79
2021/12/27 03:37:57;;;;;;;114.00;37.97;;;;;;;-12.92;69.42;98856.92;2290986;78;21071;-78
2021/12/27 03:40:58;;;;;;;105.80;38.43;;;;;;;-12.86;69.11;98849.11;2290903;78;20932;-80
2021/12/27 03:43:58;;;;;;;116.60;41.80;;;;;;;-12.81;69.09;98851.72;2290794;78;20991;-78
2021/12/27 03:46:59;;;;;;;111.77;37.37;;;;;;;-12.75;69.48;98845.17;2290339;78;20959;-79
2021/12/27 03:49:59;;;;;;;90.90;33.03;;;;;;;-12.64;70.79;98843.37;2290731;78;20960;-78
2021/12/27 03:53:00;;;;;;;82.53;33.03;;;;;;;-12.52;71.12;98852.13;2290610;78;21343;-78
2021/12/27 03:56:01;;;;;;;89.47;31.10;;;;;;;-12.18;76.20;98842.90;2290037;78;20943;-79
2021/12/27 03:59:22;;;;;;;81.53;27.13;;;;;;;-11.47;74.56;98836.41;2290445;78;20980;-78
2021/12/27 04:02:18;;;;;;;89.50;34.67;;;;;;;-11.53;72.17;98830.42;2280170;77;20923;-79
2021/12/27 04:05:19;;;;;;;82.27;29.77;;;;;;;-11.62;71.74;98833.31;2281058;78;20922;-79
2021/12/27 04:08:21;;;;;;;73.77;26.00;;;;;;;-11.60;72.02;98837.76;2281008;78;21342;-79
2021/12/27 04:11:22;;;;;;;78.30;31.27;;;;;;;-11.61;72.34;98835.98;2281184;78;21366;-79
2021/12/27 04:14:25;;;;;;;79.70;26.13;;;;;;;-11.58;72.48;98846.34;2281485;78;20981;-79
2021/12/27 04:17:26;;;;;;;93.80;34.17;;;;;;;-11.53;72.10;98844.64;2280498;78;20978;-79
2021/12/27 04:20:26;;;;;;;81.03;27.20;;;;;;;-11.53;72.21;98842.13;2280682;78;20945;-79
2021/12/27 04:23:27;;;;;;;91.97;34.07;;;;;;;-11.51;72.59;98841.53;2281013;78;20969;-79
2021/12/27 04:26:27;;;;;;;86.53;30.87;;;;;;;-11.50;72.68;98844.94;2281025;78;21021;-79
2021/12/27 04:29:28;;;;;;;96.83;34.47;;;;;;;-11.50;72.39;98844.94;2281111;78;21330;-79
2021/12/27 04:32:28;;;;;;;81.57;31.90;;;;;;;-11.52;72.37;98835.98;2281098;78;20957;-79
2021/12/27 04:35:29;;;;;;;88.50;33.63;;;;;;;-11.50;72.75;98835.75;2281157;78;20973;-79
2021/12/27 04:38:29;;;;;;;80.50;30.53;;;;;;;-11.43;72.95;98839.38;2280991;78;21017;-79
2021/12/27 04:41:30;;;;;;;84.10;30.60;;;;;;;-11.41;72.82;98842.05;2280489;78;20973;-79
2021/12/27 04:44:30;;;;;;;76.97;29.47;;;;;;;-11.38;72.65;98841.08;2280810;78;21000;-79
2021/12/27 04:47:30;;;;;;;91.50;32.13;;;;;;;-11.39;72.58;98845.22;2280407;78;21441;-79
2021/12/27 04:50:31;;;;;;;83.07;33.70;;;;;;;-11.36;72.76;98849.67;2279918;78;20930;-79
2021/12/27 04:53:31;;;;;;;92.73;32.70;;;;;;;-11.36;73.00;98850.55;2280035;78;20969;-79
2021/12/27 04:56:32;;;;;;;80.60;30.37;;;;;;;-11.35;73.12;98851.45;2280494;78;20969;-78
2021/12/27 04:59:32;;;;;;;81.47;31.67;;;;;;;-11.32;73.40;98861.81;2274682;78;21003;-79
2021/12/27 05:02:33;;;;;;;78.83;25.40;;;;;;;-11.24;73.77;98865.99;2247308;79;20999;-78
2021/12/27 05:05:33;;;;;;;91.33;32.63;;;;;;;-11.15;73.99;98870.64;2248466;79;20935;-79
2021/12/27 05:08:34;;;;;;;81.70;28.13;;;;;;;-11.10;74.01;98861.89;2248141;78;20932;-81
2021/12/27 05:11:35;;;;;;;192.60;86.53;;;;;;;-10.97;74.14;98858.52;2248646;78;20964;-79
2021/12/27 05:14:36;;;;;;;100.97;38.00;;;;;;;-9.12;89.21;98849.76;2248439;78;21387;-79
2021/12/27 05:17:37;;;;;;;74.77;28.97;;;;;;;-8.11;75.87;98841.94;2248588;79;20944;-79
2021/12/27 05:20:37;;;;;;;72.40;27.80;;;;;;;-8.71;72.70;98838.53;2248396;79;21305;-79
2021/12/27 05:23:38;;;;;;;64.33;25.60;;;;;;;-9.17;72.63;98845.05;2248395;79;21359;-79
2021/12/27 05:26:38;;;;;;;74.07;28.37;;;;;;;-9.53;73.84;98848.65;2248358;79;21714;-78
2021/12/27 05:29:39;;;;;;;61.70;23.10;;;;;;;-9.77;74.18;98839.73;2247911;78;21433;-78
2021/12/27 05:32:40;;;;;;;67.27;27.10;;;;;;;-9.85;74.41;98836.90;2247838;78;20912;-78
2021/12/27 05:35:41;;;;;;;60.00;22.33;;;;;;;-9.89;75.11;98836.11;2247854;78;20990;-79
2021/12/27 05:38:41;;;;;;;61.00;23.43;;;;;;;-9.89;75.35;98844.95;2247617;79;20967;-79
2021/12/27 05:41:42;;;;;;;67.60;26.93;;;;;;;-9.86;75.34;98836.77;2246844;78;20971;-78
2021/12/27 05:47:45;;;;;;;44.90;20.47;;;;;;;-9.71;76.61;98842.81;2224485;79;20935;-79
2021/12/27 05:50:45;;;;;;;60.30;24.30;;;;;;;-9.66;77.79;98835.27;2247833;79;20959;-78
2021/12/27 05:53:46;;;;;;;65.93;27.63;;;;;;;-9.64;78.05;98837.55;2246816;79;20920;-77
2021/12/27 05:56:46;;;;;;;57.83;23.50;;;;;;;-9.58;77.84;98831.27;2247357;78;20939;-79
2021/12/27 05:59:47;;;;;;;60.33;24.93;;;;;;;-9.55;77.76;98840.01;2251489;77;21036;-79
2021/12/27 06:02:47;;;;;;;44.80;19.73;;;;;;;-9.45;77.51;98845.53;2278540;78;21290;-76
2021/12/27 06:05:48;;;;;;;65.13;24.33;;;;;;;-9.32;77.71;98842.07;2278502;78;20906;-76
2021/12/27 06:08:48;;;;;;;56.20;23.90;;;;;;;-9.29;77.87;98838.55;2277657;78;21416;-77
2021/12/27 06:11:49;;;;;;;51.90;20.90;;;;;;;-9.27;77.75;98834.89;2277633;78;20930;-77
2021/12/27 06:14:49;;;;;;;55.73;20.93;;;;;;;-9.26;77.74;98830.34;2278027;78;21385;-76
2021/12/27 06:17:50;;;;;;;55.80;21.30;;;;;;;-9.21;77.55;98831.63;2279080;78;21353;-77
2021/12/27 06:20:50;;;;;;;51.97;20.23;;;;;;;-9.18;77.76;98834.43;2278887;78;21413;-77
2021/12/27 06:23:50;;;;;;;53.60;23.70;;;;;;;-9.17;78.16;98821.92;2278176;78;20921;-77
2021/12/27 06:26:51;;;;;;;79.20;29.30;;;;;;;-9.17;77.94;98824.45;2278632;78;21321;-77
2021/12/27 06:29:51;;;;;;;54.27;22.07;;;;;;;-9.12;78.24;98822.32;2277583;78;21616;-77
2021/12/27 06:32:52;;;;;;;58.10;21.43;;;;;;;-9.07;77.75;98827.02;2277664;78;20925;-77
2021/12/27 06:35:52;;;;;;;62.17;23.13;;;;;;;-9.08;78.16;98827.78;2277974;78;20937;-77
2021/12/27 06:38:53;;;;;;;41.67;18.83;;;;;;;-9.06;77.84;98826.27;2278025;78;20977;-77
2021/12/27 06:41:53;;;;;;;61.37;24.83;;;;;;;-8.97;78.10;98831.61;2277364;78;20922;-76
2021/12/27 06:44:54;;;;;;;44.43;20.00;;;;;;;-8.91;77.83;98841.00;2277906;78;20898;-77
2021/12/27 06:47:54;;;;;;;62.43;25.80;;;;;;;-8.86;77.76;98834.31;2277893;78;20894;-77
2021/12/27 06:50:55;;;;;;;61.03;22.67;;;;;;;-8.83;78.05;98823.57;2277461;78;20985;-77
2021/12/27 06:53:55;;;;;;;60.27;23.10;;;;;;;-8.80;77.73;98833.95;2277556;78;20934;-77
2021/12/27 06:56:59;;;;;;;72.53;27.77;;;;;;;-8.76;77.66;98830.93;2277999;78;21244;-77
2021/12/27 06:59:58;;;;;;;51.00;21.83;;;;;;;-8.77;77.91;98821.19;2276668;78;20950;-76
2021/12/27 07:02:59;;;;;;;43.33;20.00;;;;;;;-8.71;77.87;98808.17;2278838;78;21927;-77
2021/12/27 07:05:59;;;;;;;58.87;24.10;;;;;;;-8.65;77.69;98810.38;2278587;78;20934;-77
2021/12/27 07:09:00;;;;;;;55.97;21.37;;;;;;;-8.62;77.73;98815.69;2277423;78;20910;-76
2021/12/27 07:12:00;;;;;;;59.37;23.83;;;;;;;-8.45;82.22;98809.14;2277568;78;20926;-77
2021/12/27 07:15:01;;;;;;;57.87;23.33;;;;;;;-8.21;78.17;98810.28;2277573;78;20996;-77
2021/12/27 07:18:01;;;;;;;64.63;22.57;;;;;;;-8.20;77.64;98818.38;2277254;78;20988;-78
2021/12/27 07:21:02;;;;;;;54.87;21.97;;;;;;;-8.16;77.45;98815.34;2277469;78;20938;-77
2021/12/27 07:24:02;;;;;;;66.10;26.43;;;;;;;-8.11;77.29;98817.50;2278797;78;20961;-77
2021/12/27 07:27:02;;;;;;;60.87;25.27;;;;;;;-8.07;77.09;98817.00;2279222;78;20967;-77
2021/12/27 07:30:04;;;;;;;56.47;23.53;;;;;;;-8.03;77.03;98819.41;2279866;78;21020;-77
2021/12/27 07:33:04;;;;;;;62.83;26.50;;;;;;;-7.99;76.97;98817.63;2279751;78;20938;-77
2021/12/27 07:36:07;;;;;;;68.30;27.17;;;;;;;-7.99;76.90;98820.16;2279157;78;20966;-77
2021/12/27 07:39:07;;;;;;;58.03;25.97;;;;;;;-7.98;76.98;98820.67;2279108;78;21551;-77
2021/12/27 07:42:08;;;;;;;42.10;19.70;;;;;;;-7.99;77.03;98820.54;2279167;78;20965;-77
2021/12/27 07:45:08;;;;;;;45.20;19.83;;;;;;;-7.92;77.26;98827.50;2278628;78;21325;-77
2021/12/27 07:48:10;;;;;;;53.23;22.90;;;;;;;-7.82;77.36;98821.17;2278868;78;21286;-77
2021/12/27 07:51:11;;;;;;;55.10;23.00;;;;;;;-7.71;77.01;98814.09;2279172;78;20916;-75
2021/12/27 07:54:11;;;;;;;53.73;23.97;;;;;;;-7.60;76.61;98811.55;2278990;78;21357;-75
2021/12/27 07:57:11;;;;;;;56.50;23.03;;;;;;;-7.47;76.53;98807.59;2279050;78;21328;-79
2021/12/27 08:00:14;;;;;;;46.93;21.40;;;;;;;-7.33;76.23;98804.00;2273577;78;20995;-80
2021/12/27 08:03:14;;;;;;;46.43;22.10;;;;;;;-7.29;75.73;98797.14;2246792;78;20964;-79
2021/12/27 08:06:15;;;;;;;48.63;22.93;;;;;;;-7.23;75.60;98797.25;2246851;79;20932;-81
2021/12/27 08:09:15;;;;;;;54.97;22.17;;;;;;;-7.11;75.54;98796.06;2247640;79;20943;-80
2021/12/27 08:12:16;;;;;;;52.10;21.33;;;;;;;-7.10;74.91;98784.77;2249552;79;20979;-78
2021/12/27 08:15:16;;;;;;;56.53;23.53;;;;;;;-7.04;74.79;98781.83;2246682;78;21304;-78
2021/12/27 08:18:17;;;;;;;51.00;22.83;;;;;;;-7.03;74.59;98782.72;2247043;78;21348;-77
2021/12/27 08:21:17;;;;;;;52.50;22.40;;;;;;;-7.00;74.51;98777.88;2247695;78;20998;-77
2021/12/27 08:24:18;;;;;;;56.83;25.03;;;;;;;-7.01;74.22;98783.72;2247782;79;20955;-77
2021/12/27 08:27:18;;;;;;;52.30;20.97;;;;;;;-7.01;74.25;98792.22;2247349;78;20941;-77
2021/12/27 08:30:19;;;;;;;50.23;21.93;;;;;;;-6.93;74.33;98785.23;2246868;79;20956;-77
2021/12/27 08:33:22;;;;;;;56.00;24.70;;;;;;;-6.86;74.23;98783.69;2246815;78;21623;-77
2021/12/27 08:36:23;;;;;;;51.77;24.17;;;;;;;-6.92;74.04;98780.67;2247639;79;20979;-77
2021/12/27 08:39:23;;;;;;;51.03;24.13;;;;;;;-6.86;74.35;98775.69;2246467;78;20998;-77
2021/12/27 08:42:24;;;;;;;51.40;23.63;;;;;;;-6.74;74.33;98775.75;2247083;79;20959;-77
2021/12/27 08:45:24;;;;;;;50.77;22.87;;;;;;;-6.62;74.04;98783.04;2246632;79;21332;-76
2021/12/27 08:48:24;;;;;;;51.57;22.37;;;;;;;-6.45;74.13;98777.59;2246041;79;21316;-77
2021/12/27 08:51:25;;;;;;;54.43;24.87;;;;;;;-6.35;73.65;98774.48;2246565;78;20936;-77
2021/12/27 08:54:26;;;;;;;52.93;23.27;;;;;;;-6.26;73.61;98776.06;2246149;78;20932;-76
2021/12/27 08:57:26;;;;;;;58.97;26.43;;;;;;;-6.06;73.45;98777.59;2245985;78;21009;-77
2021/12/27 09:00:27;;;;;;;59.97;26.53;;;;;;;-5.91;73.46;98777.47;2249881;77;20954;-77
2021/12/27 09:03:27;;;;;;;55.87;25.80;;;;;;;-5.87;72.46;98773.45;2278878;78;20933;-77
2021/12/27 09:06:28;;;;;;;66.73;30.97;;;;;;;-5.87;72.30;98767.98;2278674;78;21329;-77
2021/12/27 09:09:29;;;;;;;60.17;26.07;;;;;;;-5.83;72.52;98774.19;2279896;78;20973;-77
2021/12/27 09:12:29;;;;;;;62.73;26.53;;;;;;;-5.69;71.70;98759.94;2279123;78;20929;-77
2021/12/27 09:15:30;;;;;;;52.67;23.23;;;;;;;-5.60;72.44;98758.07;2278987;78;20894;-77
2021/12/27 09:18:31;;;;;;;60.57;24.33;;;;;;;-5.42;71.68;98753.04;2279478;78;20978;-77
2021/12/27 09:21:31;;;;;;;62.43;25.53;;;;;;;-5.46;71.52;98749.78;2279030;78;21247;-77
2021/12/27 09:24:32;;;;;;;63.17;26.87;;;;;;;-5.47;71.40;98741.27;2278449;78;21659;-77
2021/12/27 09:27:32;;;;;;;52.87;23.77;;;;;;;-5.45;71.37;98741.38;2278602;78;20958;-77
2021/12/27 09:30:33;;;;;;;55.43;26.23;;;;;;;-5.61;70.92;98736.84;2278898;78;20918;-77
2021/12/27 09:33:33;;;;;;;58.97;25.87;;;;;;;-5.58;71.54;98728.55;2279136;78;20997;-77
2021/12/27 09:36:34;;;;;;;60.93;25.00;;;;;;;-5.58;71.54;98728.55;2279267;78;20929;-77
2021/12/27 09:39:34;;;;;;;57.40;24.47;;;;;;;-5.57;71.34;98725.23;2278216;78;20946;-77
2021/12/27 09:42:35;;;;;;;54.43;24.77;;;;;;;-5.54;71.54;98724.18;2278020;78;20930;-76
2021/12/27 09:45:35;;;;;;;61.00;25.17;;;;;;;-5.39;71.69;98722.73;2278421;78;21334;-78
2021/12/27 09:48:36;;;;;;;52.03;25.47;;;;;;;-5.23;71.26;98720.89;2278917;78;21401;-77
2021/12/27 09:51:37;;;;;;;57.87;26.00;;;;;;;-5.20;71.01;98715.66;2279849;78;21389;-77
2021/12/27 09:54:37;;;;;;;53.90;24.70;;;;;;;-5.05;71.31;98709.88;2278699;78;21377;-77
2021/12/27 09:57:38;;;;;;;58.67;25.13;;;;;;;-4.91;71.15;98706.63;2278580;78;21453;-76
2021/12/27 10:00:40;;;;;;;47.80;24.73;;;;;;;-4.81;70.74;98700.12;2275551;77;21348;-77
2021/12/27 10:03:41;;;;;;;46.53;22.77;;;;;;;-4.81;70.67;98691.21;2246564;79;20924;-77
2021/12/27 10:06:41;;;;;;;58.97;25.43;;;;;;;-4.85;70.26;98679.93;2246165;79;21319;-77
2021/12/27 10:09:42;;;;;;;50.40;23.27;;;;;;;-4.91;70.43;98687.53;2245825;79;21340;-77
2021/12/27 10:12:42;;;;;;;45.07;22.77;;;;;;;-5.03;70.22;98685.02;2245688;79;20946;-77
2021/12/27 10:15:43;;;;;;;44.43;21.97;;;;;;;-5.21;70.52;98690.07;2246757;79;21343;-77
2021/12/27 10:18:44;;;;;;;46.03;20.73;;;;;;;-5.32;70.81;98688.05;2247663;78;21007;-77
2021/12/27 10:21:44;;;;;;;42.27;20.23;;;;;;;-5.33;71.15;98688.83;2246947;79;21359;-77
2021/12/27 10:24:45;;;;;;;43.73;22.07;;;;;;;-5.28;71.10;98684.06;2246653;79;20920;-77
2021/12/27 10:27:45;;;;;;;41.77;21.50;;;;;;;-5.21;71.23;98682.44;2247067;78;20931;-77
2021/12/27 10:30:46;;;;;;;38.33;20.80;;;;;;;-5.16;71.36;98679.86;2247705;78;20959;-77
2021/12/27 10:33:47;;;;;;;44.20;20.17;;;;;;;-5.05;71.11;98683.15;2246320;78;20948;-76
2021/12/27 10:36:47;;;;;;;57.67;28.20;;;;;;;-4.96;70.87;98689.77;2247024;79;20964;-76
2021/12/27 10:39:47;;;;;;;48.57;22.77;;;;;;;-4.89;70.88;98687.25;2246446;79;20998;-76
2021/12/27 10:42:50;;;;;;;42.83;20.57;;;;;;;-4.77;71.05;98689.37;2247053;79;21399;-76
2021/12/27 10:45:50;;;;;;;37.10;19.67;;;;;;;-4.67;70.54;98684.13;2246621;79;21006;-76
2021/12/27 10:48:54;;;;;;;44.20;21.83;;;;;;;-4.74;69.63;98675.57;2246710;79;20932;-78
2021/12/27 10:51:55;;;;;;;41.83;21.20;;;;;;;-4.82;70.41;98676.32;2247076;79;20939;-78
2021/12/27 10:54:55;;;;;;;46.30;21.27;;;;;;;-4.79;71.13;98668.01;2247200;78;20955;-77
2021/12/27 10:57:56;;;;;;;44.27;22.30;;;;;;;-4.61;71.26;98669.64;2247416;78;21344;-78
2021/12/27 11:00:56;;;;;;;36.60;18.73;;;;;;;-4.63;70.79;98663.56;2252776;77;20912;-81
2021/12/27 11:03:57;;;;;;;46.23;21.80;;;;;;;-4.63;70.64;98661.90;2282132;78;21001;-81
2021/12/27 11:07:00;;;;;;;44.83;20.97;;;;;;;-4.77;70.94;98661.36;2281423;78;20962;-79
2021/12/27 11:10:01;;;;;;;45.20;21.03;;;;;;;-4.70;71.27;98655.89;2282093;78;21029;-79
2021/12/27 11:13:01;;;;;;;41.40;19.80;;;;;;;-4.74;71.28;98645.02;2281258;78;21307;-78
2021/12/27 11:16:02;;;;;;;47.03;22.37;;;;;;;-4.72;71.40;98642.17;2280486;78;20957;-78
2021/12/27 11:19:02;;;;;;;44.77;21.93;;;;;;;-4.69;71.40;98632.20;2280071;78;20961;-79
2021/12/27 11:22:03;;;;;;;50.40;22.47;;;;;;;-4.58;71.63;98628.70;2280048;78;20941;-78
2021/12/27 11:25:05;;;;;;;48.30;21.77;;;;;;;-4.51;71.50;98628.33;2280412;78;20941;-78
2021/12/27 11:28:06;;;;;;;43.60;21.50;;;;;;;-4.57;71.10;98618.12;2281157;78;21040;-79
2021/12/27 11:31:06;;;;;;;48.77;21.63;;;;;;;-4.75;71.21;98619.44;2280509;78;20922;-79
2021/12/27 11:34:16;;;;;;;44.30;22.97;;;;;;;-4.97;71.36;98617.99;2280388;78;20910;-80
2021/12/27 11:37:16;;;;;;;45.70;21.73;;;;;;;-5.16;71.74;98614.58;2279156;78;20997;-78
2021/12/27 11:40:17;;;;;;;65.37;30.33;;;;;;;-5.18;71.83;98613.59;2280011;78;21036;-77
2021/12/27 11:43:17;;;;;;;47.27;23.30;;;;;;;-5.24;72.00;98618.22;2279950;78;20958;-81
2021/12/27 11:46:18;;;;;;;43.43;19.23;;;;;;;-5.31;72.29;98616.03;2279736;78;20949;-77
2021/12/27 11:49:18;;;;;;;46.43;21.03;;;;;;;-5.40;72.61;98601.80;2279830;78;21346;-78
2021/12/27 11:52:19;;;;;;;47.27;22.37;;;;;;;-5.45;72.93;98604.02;2280520;78;20961;-78
2021/12/27 11:55:22;;;;;;;49.70;21.13;;;;;;;-5.41;73.17;98593.28;2280130;78;20945;-80
2021/12/27 11:58:22;;;;;;;39.80;18.77;;;;;;;-5.32;73.33;98590.48;2280571;78;21068;-78
2021/12/27 12:01:22;;;;;;;40.13;18.73;;;;;;;-5.26;73.42;98591.79;2274360;77;21437;-78
2021/12/27 12:04:23;;;;;;;45.00;20.73;;;;;;;-5.10;73.59;98585.23;2247134;78;20944;-78
2021/12/27 12:07:23;;;;;;;44.77;21.03;;;;;;;-5.00;73.58;98585.97;2247319;79;21006;-78
2021/12/27 12:10:24;;;;;;;39.07;19.43;;;;;;;-4.90;73.55;98576.89;2247514;79;20960;-78
2021/12/27 12:13:26;;;;;;;40.07;19.67;;;;;;;-4.76;73.64;98562.53;2223810;79;20927;-78
2021/12/27 12:16:28;;;;;;;41.70;18.87;;;;;;;-4.71;73.64;98557.36;2246760;79;20920;-78
2021/12/27 12:19:29;;;;;;;40.63;18.77;;;;;;;-4.53;73.97;98549.66;2247343;79;20991;-80
2021/12/27 12:22:29;;;;;;;41.93;19.13;;;;;;;-4.45;73.40;98548.00;2247677;79;21324;-81
2021/12/27 12:25:30;;;;;;;37.40;18.33;;;;;;;-4.39;73.57;98545.84;2246820;78;21308;-80
2021/12/27 12:28:30;;;;;;;39.50;18.50;;;;;;;-4.31;73.65;98548.14;2247940;78;20928;-78
2021/12/27 12:31:31;;;;;;;35.60;18.07;;;;;;;-4.28;73.47;98547.45;2247244;79;20948;-78
2021/12/27 12:34:32;;;;;;;36.93;19.33;;;;;;;-4.30;73.50;98543.92;2247126;79;20948;-78
2021/12/27 12:37:32;;;;;;;33.87;16.43;;;;;;;-4.27;73.69;98555.59;2247078;79;20931;-78
2021/12/27 12:40:33;;;;;;;32.97;16.47;;;;;;;-4.27;73.79;98550.09;2248227;78;20975;-78
2021/12/27 12:43:33;;;;;;;35.77;18.67;;;;;;;-4.27;73.82;98561.56;2247834;79;20936;-78
2021/12/27 12:46:38;;;;;;;69.53;30.70;;;;;;;-4.21;74.03;98551.77;2247630;78;20988;-78
2021/12/27 12:49:39;;;;;;;31.23;15.87;;;;;;;-4.16;74.07;98548.23;2246347;78;21715;-77
2021/12/27 12:52:39;;;;;;;36.43;16.97;;;;;;;-4.17;73.66;98540.10;2246539;79;20936;-78
2021/12/27 12:55:40;;;;;;;34.23;18.23;;;;;;;-4.23;73.99;98544.80;2247306;79;20936;-78
2021/12/27 12:58:40;;;;;;;34.00;17.40;;;;;;;-4.17;74.37;98547.36;2247330;78;20980;-79
2021/12/27 13:01:41;;;;;;;27.40;15.27;;;;;;;-4.07;74.55;98546.67;2253054;77;20974;-80
2021/12/27 13:04:41;;;;;;;37.50;17.23;;;;;;;-4.07;74.33;98545.39;2277716;78;20957;-81
2021/12/27 13:07:46;;;;;;;38.17;17.63;;;;;;;-4.01;74.74;98547.05;2278139;78;20985;-79
2021/12/27 13:10:51;;;;;;;37.90;17.27;;;;;;;-3.97;74.90;98551.17;2278472;78;20937;-83
2021/12/27 13:13:51;;;;;;;34.43;16.33;;;;;;;-3.94;74.71;98550.09;2278412;78;20919;-83
2021/12/27 13:16:54;;;;;;;28.90;15.80;;;;;;;-3.90;74.79;98555.88;2278501;78;20934;-81
2021/12/27 13:19:54;;;;;;;30.73;16.40;;;;;;;-3.86;74.69;98564.20;2278068;78;21029;-82
2021/12/27 13:22:54;;;;;;;30.40;15.80;;;;;;;-3.87;74.60;98561.56;2278752;78;20913;-83
2021/12/27 13:25:55;;;;;;;28.87;16.30;;;;;;;-3.93;74.86;98567.16;2278932;78;20946;-84
2021/12/27 13:28:55;;;;;;;33.10;15.70;;;;;;;-3.99;75.05;98560.39;2280523;78;20980;-82
2021/12/27 13:31:56;;;;;;;28.90;15.73;;;;;;;-4.11;75.45;98557.06;2279392;78;20985;-82
2021/12/27 13:34:57;;;;;;;27.70;16.27;;;;;;;-4.24;75.49;98549.41;2280277;78;20922;-80
2021/12/27 13:37:57;;;;;;;30.50;15.57;;;;;;;-4.30;76.04;98543.92;2279895;78;20969;-81
2021/12/27 13:40:58;;;;;;;32.67;15.50;;;;;;;-4.44;76.46;98538.30;2279677;78;20902;-76
2021/12/27 13:43:58;;;;;;;33.00;17.17;;;;;;;-4.52;76.47;98536.52;2278698;78;20973;-77
2021/12/27 13:46:59;;;;;;;36.93;17.10;;;;;;;-4.63;76.50;98544.73;2278322;78;20934;-80
2021/12/27 13:49:59;;;;;;;29.73;15.57;;;;;;;-4.71;76.91;98536.11;2279117;78;21368;-82